Time;durP1;ratioP1;P1;durP2;ratioP2;P2;SDS_P1;SDS_P2;PMS_P1;PMS_P2;Temp;Humidity;BMP_temperature;BMP_pressure;BME280_temperature;BME280_humidity;BME280_pressure;Samples;Min_cycle;Max_cycle;Signal;HPM_P1;HPM_P2
2021/09/24 00:01:08;;;;;;;12.10;2.50;;;14.00;99.90;;;;;;5072681;28;20042;-50
2021/09/24 00:03:37;;;;;;;13.82;2.35;;;14.00;99.90;;;;;;5073819;28;20045;-49
2021/09/24 00:06:04;;;;;;;15.30;2.58;;;14.00;99.90;;;;;;5077880;28;20048;-50
2021/09/24 00:08:30;;;;;;;12.98;2.58;;;14.00;99.90;;;;;;5076328;28;20037;-51
2021/09/24 00:10:56;;;;;;;11.88;2.60;;;14.00;99.90;;;;;;5077071;28;20403;-54
2021/09/24 00:13:22;;;;;;;15.15;2.83;;;14.00;99.90;;;;;;5074504;28;20125;-53
2021/09/24 00:15:48;;;;;;;14.88;2.53;;;14.00;99.90;;;;;;5072161;28;20070;-53
2021/09/24 00:18:14;;;;;;;11.63;2.80;;;14.00;99.90;;;;;;5061201;28;20129;-53
2021/09/24 00:20:39;;;;;;;10.02;3.15;;;14.00;99.90;;;;;;5075134;28;20501;-54
2021/09/24 00:23:05;;;;;;;10.68;2.78;;;14.00;99.90;;;;;;5068335;28;20029;-52
2021/09/24 00:25:31;;;;;;;10.98;2.28;;;14.10;99.90;;;;;;5072466;28;20094;-54
2021/09/24 00:27:58;;;;;;;14.80;2.75;;;14.10;99.90;;;;;;5072996;28;20408;-55
2021/09/24 00:30:25;;;;;;;12.93;2.45;;;14.10;99.90;;;;;;5072054;28;20439;-52
2021/09/24 00:32:50;;;;;;;12.85;3.22;;;14.10;99.90;;;;;;5071657;28;20043;-55
2021/09/24 00:35:16;;;;;;;13.52;2.70;;;14.10;99.90;;;;;;5075304;28;20032;-54
2021/09/24 00:37:42;;;;;;;13.65;2.50;;;14.10;99.90;;;;;;5068006;28;20688;-54
2021/09/24 00:40:08;;;;;;;16.65;3.47;;;14.10;99.90;;;;;;5075238;28;20040;-51
2021/09/24 00:42:34;;;;;;;14.15;3.17;;;14.10;99.90;;;;;;5068996;28;20041;-50
2021/09/24 00:45:00;;;;;;;14.98;2.65;;;14.10;99.90;;;;;;5075733;28;20041;-51
2021/09/24 00:47:26;;;;;;;7.25;2.50;;;14.10;99.90;;;;;;5062400;28;20090;-50
2021/09/24 00:49:52;;;;;;;15.50;3.63;;;14.10;99.90;;;;;;5066641;28;20119;-54
2021/09/24 00:52:19;;;;;;;10.85;3.03;;;14.10;99.90;;;;;;5060784;28;20481;-54
2021/09/24 00:54:50;;;;;;;13.85;2.85;;;14.10;99.90;;;;;;5065140;28;20048;-54
2021/09/24 00:57:17;;;;;;;13.83;2.80;;;14.10;99.90;;;;;;5067525;28;20049;-55
2021/09/24 00:59:43;;;;;;;17.75;3.50;;;14.20;99.90;;;;;;5068005;28;20040;-54
2021/09/24 01:02:09;;;;;;;12.10;2.75;;;14.20;99.90;;;;;;5068882;28;20094;-54
2021/09/24 01:04:35;;;;;;;14.20;2.80;;;14.20;99.90;;;;;;5068833;28;20036;-54
2021/09/24 01:07:01;;;;;;;11.27;2.85;;;14.20;99.90;;;;;;5070111;28;20512;-54
2021/09/24 01:09:27;;;;;;;12.10;3.13;;;14.20;99.90;;;;;;5067503;28;20465;-54
2021/09/24 01:11:53;;;;;;;15.30;2.50;;;14.30;99.90;;;;;;5055983;28;20040;-52
2021/09/24 01:14:19;;;;;;;13.15;2.90;;;14.30;99.90;;;;;;5070652;28;20036;-52
2021/09/24 01:16:44;;;;;;;14.55;2.97;;;14.30;99.90;;;;;;5071770;28;20041;-53
2021/09/24 01:19:10;;;;;;;9.70;2.60;;;14.30;99.90;;;;;;5068645;28;20052;-51
2021/09/24 01:21:41;;;;;;;9.02;3.20;;;14.30;99.90;;;;;;5074944;28;20104;-53
2021/09/24 01:24:07;;;;;;;10.07;2.97;;;14.30;99.90;;;;;;5069803;28;20068;-54
2021/09/24 01:26:32;;;;;;;11.77;2.90;;;14.40;99.90;;;;;;5071190;28;20484;-54
2021/09/24 01:28:59;;;;;;;16.58;2.85;;;14.40;99.90;;;;;;5068847;28;20086;-54
2021/09/24 01:31:25;;;;;;;14.20;3.05;;;14.40;99.90;;;;;;5067148;28;20150;-54
2021/09/24 01:33:51;;;;;;;15.20;3.03;;;14.40;99.90;;;;;;5073280;28;20478;-52
2021/09/24 01:36:17;;;;;;;12.38;3.03;;;14.40;99.90;;;;;;5053644;28;20405;-54
2021/09/24 01:38:43;;;;;;;13.52;3.28;;;14.40;99.90;;;;;;5066862;28;20043;-54
2021/09/24 01:41:09;;;;;;;11.95;2.90;;;14.50;99.90;;;;;;5071729;28;20036;-54
2021/09/24 01:43:36;;;;;;;14.57;2.65;;;14.50;99.90;;;;;;5061385;28;20040;-54
2021/09/24 01:46:03;;;;;;;18.02;3.55;;;14.50;99.90;;;;;;5071301;28;20036;-53
2021/09/24 01:48:29;;;;;;;16.13;3.33;;;14.50;99.90;;;;;;5075927;28;20104;-52
2021/09/24 01:50:55;;;;;;;13.75;2.85;;;14.50;99.90;;;;;;5072894;28;20064;-52
2021/09/24 01:53:21;;;;;;;12.52;3.10;;;14.50;99.90;;;;;;5065041;28;20051;-50
2021/09/24 01:55:48;;;;;;;10.80;3.22;;;14.50;99.90;;;;;;5075336;28;20028;-52
2021/09/24 01:58:14;;;;;;;10.02;2.90;;;14.50;99.90;;;;;;5069983;28;20071;-52
2021/09/24 02:00:40;;;;;;;14.50;3.17;;;14.50;99.90;;;;;;5069067;28;20075;-52
2021/09/24 02:03:06;;;;;;;17.13;3.63;;;14.50;99.90;;;;;;5072691;28;20115;-52
2021/09/24 02:05:31;;;;;;;16.48;2.97;;;14.50;99.90;;;;;;5064942;28;20064;-50
2021/09/24 02:07:57;;;;;;;10.38;2.90;;;14.50;99.90;;;;;;5070844;28;20028;-50
2021/09/24 02:10:22;;;;;;;15.65;3.38;;;14.50;99.90;;;;;;5071472;28;20041;-50
2021/09/24 02:12:48;;;;;;;17.02;4.13;;;14.50;99.90;;;;;;5071979;28;20032;-50
2021/09/24 02:15:15;;;;;;;14.88;3.15;;;14.50;99.90;;;;;;5069907;28;20044;-49
2021/09/24 02:17:41;;;;;;;10.63;2.95;;;14.60;99.90;;;;;;5072872;28;20051;-49
2021/09/24 02:20:08;;;;;;;15.43;3.30;;;14.50;99.90;;;;;;5071249;28;20049;-50
2021/09/24 02:22:34;;;;;;;18.63;3.50;;;14.60;99.90;;;;;;5065598;28;20040;-50
2021/09/24 02:24:59;;;;;;;13.90;3.35;;;14.60;99.90;;;;;;5067054;28;20048;-51
2021/09/24 02:27:25;;;;;;;13.35;3.20;;;14.60;99.90;;;;;;5072877;28;20043;-53
2021/09/24 02:29:51;;;;;;;14.45;3.15;;;14.50;99.90;;;;;;5068730;28;20036;-49
2021/09/24 02:32:16;;;;;;;14.43;3.55;;;14.60;99.90;;;;;;5071554;28;20170;-50
2021/09/24 02:34:42;;;;;;;15.23;3.63;;;14.60;99.90;;;;;;5052327;28;20162;-53
2021/09/24 02:37:08;;;;;;;11.70;3.13;;;14.60;99.90;;;;;;5072044;28;20540;-52
2021/09/24 02:39:34;;;;;;;11.85;3.20;;;14.60;99.90;;;;;;5073890;28;20048;-54
2021/09/24 02:42:01;;;;;;;15.23;2.83;;;14.60;99.90;;;;;;5039320;28;20079;-54
2021/09/24 02:44:26;;;;;;;11.10;3.22;;;14.60;99.90;;;;;;5069881;28;20041;-54
2021/09/24 02:46:54;;;;;;;13.63;3.30;;;14.60;99.90;;;;;;5072165;28;20459;-54
2021/09/24 02:49:19;;;;;;;13.57;3.25;;;14.60;99.90;;;;;;5059994;28;20043;-54
2021/09/24 02:51:45;;;;;;;13.63;3.45;;;14.60;99.90;;;;;;5077285;28;20044;-54
2021/09/24 02:54:10;;;;;;;14.52;3.28;;;14.60;99.90;;;;;;5069917;28;20037;-50
2021/09/24 02:56:36;;;;;;;13.88;3.20;;;14.70;99.90;;;;;;5071625;28;20036;-54
2021/09/24 02:59:02;;;;;;;17.40;3.10;;;14.70;99.90;;;;;;5071954;28;20040;-50
2021/09/24 03:01:27;;;;;;;12.55;2.85;;;14.70;99.90;;;;;;5076268;28;20568;-54
2021/09/24 03:03:53;;;;;;;15.93;3.20;;;14.70;99.90;;;;;;5057304;28;20040;-51
2021/09/24 03:06:19;;;;;;;9.00;2.47;;;14.70;99.90;;;;;;5073905;28;20043;-50
2021/09/24 03:08:47;;;;;;;11.65;2.80;;;14.70;99.90;;;;;;5075814;28;20064;-51
2021/09/24 03:11:12;;;;;;;14.75;3.25;;;14.70;99.90;;;;;;5075114;28;20045;-49
2021/09/24 03:13:38;;;;;;;14.95;2.72;;;14.70;99.90;;;;;;5075300;28;20542;-53
2021/09/24 03:16:04;;;;;;;14.23;3.00;;;14.70;99.90;;;;;;5075962;28;20036;-49
2021/09/24 03:18:30;;;;;;;8.85;2.47;;;14.70;99.90;;;;;;5072667;28;20050;-53
2021/09/24 03:20:56;;;;;;;14.88;2.70;;;14.70;99.90;;;;;;5072415;28;20757;-48
2021/09/24 03:23:22;;;;;;;12.68;2.63;;;14.80;99.90;;;;;;5076439;28;20128;-51
2021/09/24 03:25:48;;;;;;;12.98;3.05;;;14.80;99.90;;;;;;5073361;28;20037;-49
2021/09/24 03:28:15;;;;;;;11.90;2.58;;;14.80;99.90;;;;;;5075103;28;20442;-49
2021/09/24 03:30:42;;;;;;;13.38;2.53;;;14.80;99.90;;;;;;5075704;28;20068;-52
2021/09/24 03:33:07;;;;;;;9.50;2.70;;;14.80;99.90;;;;;;5073806;28;20522;-48
2021/09/24 03:35:33;;;;;;;10.32;2.60;;;14.80;99.90;;;;;;5075656;28;20028;-52
2021/09/24 03:37:59;;;;;;;13.00;2.80;;;14.80;99.90;;;;;;5059359;28;20067;-53
2021/09/24 03:40:24;;;;;;;12.73;2.95;;;14.80;99.90;;;;;;5059293;28;20516;-51
2021/09/24 03:42:50;;;;;;;13.60;2.78;;;14.80;99.90;;;;;;5070852;28;20068;-55
2021/09/24 03:45:16;;;;;;;12.60;2.97;;;14.80;99.90;;;;;;5069115;28;20040;-52
2021/09/24 03:47:41;;;;;;;11.93;2.60;;;14.80;99.90;;;;;;5064337;28;20045;-51
2021/09/24 03:50:08;;;;;;;14.73;2.80;;;14.80;99.90;;;;;;5074113;28;20036;-50
2021/09/24 03:52:33;;;;;;;12.20;2.90;;;14.90;99.90;;;;;;5066357;28;20032;-53
2021/09/24 03:54:59;;;;;;;9.27;2.90;;;14.80;99.90;;;;;;5071457;28;20150;-49
2021/09/24 03:57:25;;;;;;;9.63;2.67;;;14.80;99.90;;;;;;5069345;28;20037;-51
2021/09/24 03:59:51;;;;;;;11.77;2.97;;;14.80;99.90;;;;;;5076410;28;20530;-49
2021/09/24 04:02:16;;;;;;;12.95;3.40;;;14.80;99.90;;;;;;5072600;28;20036;-49
2021/09/24 04:04:42;;;;;;;10.40;2.78;;;14.90;99.90;;;;;;5070073;28;20037;-50
2021/09/24 04:07:07;;;;;;;15.40;3.20;;;14.90;99.90;;;;;;5073416;28;20044;-51
2021/09/24 04:09:33;;;;;;;16.40;3.75;;;14.90;99.90;;;;;;5072728;28;20404;-48
2021/09/24 04:11:58;;;;;;;14.57;3.10;;;14.90;99.90;;;;;;5075230;28;20750;-48
2021/09/24 04:14:24;;;;;;;11.43;3.60;;;14.90;99.90;;;;;;5077840;28;20048;-54
2021/09/24 04:16:52;;;;;;;13.82;3.20;;;14.90;99.90;;;;;;5074742;28;20040;-54
2021/09/24 04:19:19;;;;;;;12.50;3.40;;;14.90;99.90;;;;;;5059513;28;20044;-55
2021/09/24 04:21:44;;;;;;;9.23;2.78;;;14.90;99.90;;;;;;5074587;28;20036;-55
2021/09/24 04:24:10;;;;;;;12.98;4.00;;;14.90;99.90;;;;;;5069778;28;20047;-54
2021/09/24 04:26:35;;;;;;;16.00;3.20;;;14.90;99.90;;;;;;5073520;28;20578;-53
2021/09/24 04:29:01;;;;;;;12.00;3.22;;;15.00;99.90;;;;;;5069102;28;20545;-53
2021/09/24 04:31:28;;;;;;;9.85;2.88;;;15.00;99.90;;;;;;5072085;28;20036;-52
2021/09/24 04:33:55;;;;;;;17.92;3.50;;;15.00;99.90;;;;;;5073483;28;20032;-53
2021/09/24 04:36:21;;;;;;;14.63;3.58;;;15.00;99.90;;;;;;5071254;28;20036;-50
2021/09/24 04:38:47;;;;;;;13.15;3.22;;;15.00;99.90;;;;;;5061871;28;20124;-50
2021/09/24 04:41:13;;;;;;;11.82;3.17;;;14.90;99.90;;;;;;5074797;28;20378;-51
2021/09/24 04:43:38;;;;;;;14.40;4.00;;;15.00;99.90;;;;;;5072876;28;20040;-53
2021/09/24 04:46:04;;;;;;;14.68;3.42;;;14.90;99.90;;;;;;5059750;28;20051;-48
2021/09/24 04:48:31;;;;;;;13.63;3.92;;;14.90;99.90;;;;;;5074092;28;20434;-53
2021/09/24 04:50:57;;;;;;;15.55;3.45;;;14.90;99.90;;;;;;5076112;28;20037;-54
2021/09/24 04:53:23;;;;;;;14.45;3.50;;;14.90;99.90;;;;;;5071620;28;20059;-51
2021/09/24 04:55:48;;;;;;;13.32;3.20;;;14.90;99.90;;;;;;5065349;28;20037;-53
2021/09/24 04:58:15;;;;;;;15.05;3.65;;;14.90;99.90;;;;;;5065197;28;20037;-50
2021/09/24 05:00:40;;;;;;;11.35;2.92;;;14.90;99.90;;;;;;5060753;28;20582;-51
2021/09/24 05:03:06;;;;;;;13.10;3.60;;;14.90;99.90;;;;;;5072894;28;20110;-51
2021/09/24 05:05:31;;;;;;;11.10;3.10;;;14.90;99.90;;;;;;5067734;28;20028;-52
2021/09/24 05:07:57;;;;;;;12.05;3.38;;;14.90;99.90;;;;;;5061522;28;20032;-52
2021/09/24 05:10:23;;;;;;;13.35;3.42;;;14.90;99.90;;;;;;5069980;28;20634;-51
2021/09/24 05:12:48;;;;;;;13.90;3.53;;;14.90;99.90;;;;;;5074827;28;20040;-52
2021/09/24 05:15:14;;;;;;;12.35;3.25;;;14.90;99.90;;;;;;5070952;28;20090;-52
2021/09/24 05:17:40;;;;;;;11.27;3.50;;;14.90;99.90;;;;;;5073296;28;20499;-53
2021/09/24 05:20:06;;;;;;;10.98;3.33;;;14.90;99.90;;;;;;5074916;28;20070;-54
2021/09/24 05:22:31;;;;;;;15.25;3.38;;;14.90;99.90;;;;;;5071939;28;20044;-54
2021/09/24 05:24:57;;;;;;;13.13;3.60;;;15.00;99.90;;;;;;5072814;28;20047;-54
2021/09/24 05:27:23;;;;;;;11.27;3.30;;;15.00;99.90;;;;;;5071159;28;20036;-50
2021/09/24 05:29:49;;;;;;;15.82;3.47;;;15.00;99.90;;;;;;5073446;28;20124;-53
2021/09/24 05:32:17;;;;;;;18.90;3.28;;;14.90;99.90;;;;;;5061725;28;20052;-53
2021/09/24 05:34:43;;;;;;;14.95;4.20;;;15.00;99.90;;;;;;5064720;28;20097;-54
2021/09/24 05:37:09;;;;;;;16.65;3.55;;;15.00;99.90;;;;;;5069819;28;20107;-50
2021/09/24 05:39:35;;;;;;;11.48;3.63;;;15.00;99.90;;;;;;5070993;28;20583;-54
2021/09/24 05:42:01;;;;;;;11.60;3.38;;;14.90;99.90;;;;;;5056585;28;20040;-53
2021/09/24 05:44:27;;;;;;;12.48;3.45;;;15.00;99.90;;;;;;5070973;28;20408;-54
2021/09/24 05:46:52;;;;;;;13.75;3.58;;;15.00;99.90;;;;;;5073850;28;20041;-53
2021/09/24 05:49:18;;;;;;;10.40;3.03;;;15.00;99.90;;;;;;5073332;28;20047;-53
2021/09/24 05:51:44;;;;;;;9.68;3.10;;;15.00;99.90;;;;;;5056704;28;20514;-56
2021/09/24 05:54:11;;;;;;;15.68;3.50;;;15.00;99.90;;;;;;5066095;28;20447;-53
2021/09/24 05:56:38;;;;;;;14.43;3.55;;;15.00;99.90;;;;;;5048917;28;20028;-52
2021/09/24 05:59:04;;;;;;;9.60;3.47;;;15.10;99.90;;;;;;5055965;28;20131;-53
2021/09/24 06:01:29;;;;;;;10.40;3.40;;;15.10;99.90;;;;;;5056053;28;20604;-53
2021/09/24 06:03:55;;;;;;;11.63;3.30;;;15.00;99.90;;;;;;5055326;28;20028;-55
2021/09/24 06:06:21;;;;;;;13.05;3.38;;;15.00;99.90;;;;;;5057576;28;20086;-54
2021/09/24 06:08:50;;;;;;;12.38;3.28;;;15.00;99.90;;;;;;5061897;28;20778;-52
2021/09/24 06:11:19;;;;;;;10.50;3.53;;;15.00;99.90;;;;;;5058546;28;20033;-52
2021/09/24 06:13:45;;;;;;;9.80;3.15;;;15.10;99.90;;;;;;5057558;28;20052;-53
2021/09/24 06:16:11;;;;;;;11.60;3.50;;;15.10;99.90;;;;;;5062832;28;20784;-55
2021/09/24 06:18:37;;;;;;;12.73;3.60;;;15.00;99.90;;;;;;5057225;28;20036;-53
2021/09/24 06:21:03;;;;;;;13.85;3.60;;;15.10;99.90;;;;;;5055787;28;20045;-53
2021/09/24 06:23:30;;;;;;;14.80;3.75;;;15.10;99.90;;;;;;5059203;28;20041;-49
2021/09/24 06:25:59;;;;;;;9.57;3.38;;;15.00;99.90;;;;;;5056597;28;20497;-54
2021/09/24 06:28:28;;;;;;;11.93;3.50;;;15.10;99.90;;;;;;5063788;28;20115;-55
2021/09/24 06:30:54;;;;;;;14.57;3.53;;;15.10;99.90;;;;;;5056884;28;20116;-52
2021/09/24 06:33:20;;;;;;;13.32;3.50;;;15.10;99.90;;;;;;5068788;28;20032;-53
2021/09/24 06:35:46;;;;;;;14.65;3.92;;;15.10;99.90;;;;;;5072054;28;20158;-55
2021/09/24 06:38:12;;;;;;;10.50;3.50;;;15.10;99.90;;;;;;5068031;28;20508;-53
2021/09/24 06:40:37;;;;;;;12.95;3.65;;;15.20;99.90;;;;;;5052570;28;20075;-52
2021/09/24 06:43:03;;;;;;;10.38;3.22;;;15.20;99.90;;;;;;5067882;28;20033;-53
2021/09/24 06:45:29;;;;;;;11.82;3.80;;;15.20;99.90;;;;;;5069932;28;20028;-52
2021/09/24 06:47:55;;;;;;;13.88;3.60;;;15.20;99.90;;;;;;5064494;28;20417;-52
2021/09/24 06:50:20;;;;;;;11.68;4.45;;;15.20;99.90;;;;;;5064681;28;20041;-52
2021/09/24 06:52:46;;;;;;;13.75;3.22;;;15.20;99.80;;;;;;5042747;28;20083;-53
2021/09/24 06:55:12;;;;;;;9.80;3.33;;;15.30;99.80;;;;;;5044215;28;20093;-52
2021/09/24 06:57:38;;;;;;;7.20;3.28;;;15.30;99.80;;;;;;5071129;28;20067;-51
2021/09/24 07:00:05;;;;;;;10.27;3.97;;;15.30;99.80;;;;;;5071570;28;20068;-54
2021/09/24 07:02:32;;;;;;;14.10;3.50;;;15.30;99.70;;;;;;5064591;28;20040;-51
2021/09/24 07:04:57;;;;;;;11.10;3.85;;;15.30;99.60;;;;;;5067045;28;20052;-53
2021/09/24 07:07:23;;;;;;;12.77;4.47;;;15.30;99.60;;;;;;5064526;28;20043;-55
2021/09/24 07:09:48;;;;;;;16.52;3.83;;;15.30;99.60;;;;;;5061743;28;20044;-55
2021/09/24 07:12:14;;;;;;;11.45;3.85;;;15.40;99.50;;;;;;5063003;28;20040;-55
2021/09/24 07:14:40;;;;;;;9.57;3.42;;;15.40;99.50;;;;;;5050406;28;20397;-54
2021/09/24 07:17:08;;;;;;;11.15;3.83;;;15.50;99.50;;;;;;5067016;28;20032;-53
2021/09/24 07:19:35;;;;;;;11.18;3.50;;;15.40;99.50;;;;;;5069468;28;20098;-50
2021/09/24 07:22:00;;;;;;;8.35;3.42;;;15.40;99.40;;;;;;5070459;28;20036;-50
2021/09/24 07:24:27;;;;;;;9.45;3.72;;;15.40;99.30;;;;;;5069841;28;20044;-55
2021/09/24 07:26:53;;;;;;;12.10;3.95;;;15.40;99.30;;;;;;5071567;28;20136;-52
2021/09/24 07:29:18;;;;;;;9.88;3.90;;;15.40;99.30;;;;;;5069876;28;20131;-52
2021/09/24 07:31:44;;;;;;;10.43;3.78;;;15.50;99.40;;;;;;5068378;28;20048;-54
2021/09/24 07:34:11;;;;;;;12.02;4.20;;;15.50;99.40;;;;;;5059628;28;20040;-54
2021/09/24 07:36:38;;;;;;;12.23;4.28;;;15.40;99.30;;;;;;5075370;28;20091;-54
2021/09/24 07:39:03;;;;;;;11.30;4.15;;;15.50;99.30;;;;;;5074353;28;20044;-53
2021/09/24 07:41:29;;;;;;;12.65;4.47;;;15.50;99.30;;;;;;5073006;28;20041;-54
2021/09/24 07:43:55;;;;;;;14.40;4.22;;;15.50;99.30;;;;;;5073158;28;20041;-53
2021/09/24 07:46:22;;;;;;;14.18;4.32;;;15.50;99.30;;;;;;5071754;28;20043;-53
2021/09/24 07:48:48;;;;;;;14.80;4.97;;;15.50;99.20;;;;;;5073812;28;20148;-50
2021/09/24 07:51:15;;;;;;;9.65;4.40;;;15.60;99.20;;;;;;5073859;28;20048;-50
2021/09/24 07:53:41;;;;;;;8.52;4.78;;;15.60;99.20;;;;;;5074537;28;20028;-54
2021/09/24 07:56:07;;;;;;;13.25;5.25;;;15.60;99.30;;;;;;5074255;28;20105;-54
2021/09/24 07:58:37;;;;;;;14.23;5.07;;;15.60;99.20;;;;;;5074245;28;20517;-52
2021/09/24 08:01:03;;;;;;;15.93;5.82;;;15.60;99.10;;;;;;5073645;28;20086;-52
2021/09/24 08:03:28;;;;;;;13.00;5.07;;;15.60;99.10;;;;;;5073796;28;20080;-49
2021/09/24 08:05:54;;;;;;;13.80;5.53;;;15.60;99.10;;;;;;5056939;28;20037;-50
2021/09/24 08:08:20;;;;;;;15.07;5.53;;;15.70;99.10;;;;;;5061597;28;20048;-52
2021/09/24 08:10:45;;;;;;;13.00;6.72;;;15.70;99.10;;;;;;5073465;28;20043;-49
2021/09/24 08:13:11;;;;;;;16.20;6.93;;;15.70;99.10;;;;;;5071166;28;20048;-51
2021/09/24 08:15:42;;;;;;;14.82;7.05;;;15.70;99.10;;;;;;5072629;28;20416;-50
2021/09/24 08:18:09;;;;;;;20.87;7.10;;;15.70;99.20;;;;;;5069167;28;20400;-49
2021/09/24 08:20:34;;;;;;;17.67;7.78;;;15.70;99.10;;;;;;5064539;28;20128;-49
2021/09/24 08:23:01;;;;;;;14.15;7.43;;;15.70;99.10;;;;;;5068089;28;20468;-54
2021/09/24 08:25:26;;;;;;;17.65;8.13;;;15.70;99.10;;;;;;5064164;28;20048;-51
2021/09/24 08:27:52;;;;;;;20.23;8.85;;;15.70;99.20;;;;;;5058998;28;20056;-51
2021/09/24 08:30:22;;;;;;;25.17;9.40;;;15.80;99.20;;;;;;5072399;28;20055;-52
2021/09/24 08:32:48;;;;;;;20.92;9.02;;;15.80;99.30;;;;;;5074784;28;20086;-53
2021/09/24 08:35:16;;;;;;;22.83;9.70;;;15.80;99.30;;;;;;5068581;28;20033;-54
2021/09/24 08:37:47;;;;;;;19.58;9.32;;;15.80;99.20;;;;;;5063966;28;20033;-51
2021/09/24 08:40:14;;;;;;;24.83;9.38;;;15.80;99.10;;;;;;5065983;28;20123;-49
2021/09/24 08:42:41;;;;;;;15.93;9.40;;;15.90;99.10;;;;;;5056906;28;20083;-52
2021/09/24 08:45:16;;;;;;;15.55;9.45;;;15.90;99.10;;;;;;5066874;28;20036;-49
2021/09/24 08:47:42;;;;;;;17.40;10.00;;;15.90;99.10;;;;;;5061316;28;20060;-49
2021/09/24 08:50:09;;;;;;;18.40;10.40;;;15.90;99.20;;;;;;5072500;28;20091;-51
2021/09/24 08:52:37;;;;;;;18.77;9.85;;;15.90;99.20;;;;;;5074063;28;20113;-49
2021/09/24 08:55:06;;;;;;;21.73;10.32;;;16.00;99.10;;;;;;5071998;28;20560;-52
2021/09/24 08:57:34;;;;;;;14.50;9.23;;;16.00;99.10;;;;;;5072087;28;20084;-50
2021/09/24 09:00:02;;;;;;;14.80;8.70;;;16.10;99.20;;;;;;5071686;28;20044;-50
2021/09/24 09:02:27;;;;;;;23.42;10.32;;;16.10;99.20;;;;;;5067667;28;20072;-49
2021/09/24 09:04:56;;;;;;;16.50;10.93;;;16.10;99.10;;;;;;5062338;28;20079;-49
2021/09/24 09:07:22;;;;;;;18.98;11.23;;;16.10;99.10;;;;;;5071999;28;20512;-51
2021/09/24 09:09:51;;;;;;;22.23;10.98;;;16.20;99.00;;;;;;5071970;28;20055;-49
2021/09/24 09:12:29;;;;;;;19.08;11.35;;;16.20;98.90;;;;;;5070798;28;20036;-51
2021/09/24 09:15:14;;;;;;;21.27;12.77;;;16.30;98.80;;;;;;5062065;28;20036;-51
2021/09/24 09:17:41;;;;;;;23.02;12.68;;;16.30;98.80;;;;;;5071472;28;20411;-51
2021/09/24 09:20:19;;;;;;;26.10;12.85;;;16.30;98.70;;;;;;5071911;28;20040;-54
2021/09/24 09:22:59;;;;;;;23.40;13.82;;;16.40;98.70;;;;;;5072198;28;20482;-54
2021/09/24 09:25:46;;;;;;;21.48;13.50;;;16.40;98.70;;;;;;5057556;28;20406;-52
2021/09/24 09:28:24;;;;;;;28.98;14.93;;;16.50;98.80;;;;;;5058212;28;20036;-51
2021/09/24 09:30:50;;;;;;;23.98;14.70;;;16.50;98.70;;;;;;5049947;28;20045;-53
2021/09/24 09:33:18;;;;;;;27.67;14.48;;;16.50;98.60;;;;;;5037690;28;20094;-53
2021/09/24 09:35:48;;;;;;;26.63;15.02;;;16.60;98.70;;;;;;5059442;28;20032;-53
2021/09/24 09:38:22;;;;;;;28.58;16.08;;;16.60;98.70;;;;;;5071425;28;20068;-53
2021/09/24 09:41:23;;;;;;;28.73;16.60;;;16.60;98.80;;;;;;5071078;28;20028;-53
2021/09/24 09:43:59;;;;;;;32.90;16.93;;;16.70;98.90;;;;;;5024191;28;20138;-55
2021/09/24 09:46:35;;;;;;;26.35;14.40;;;16.70;98.80;;;;;;5062720;28;20036;-55
2021/09/24 09:49:12;;;;;;;25.17;16.00;;;16.80;98.90;;;;;;5070688;28;20133;-54
2021/09/24 09:51:41;;;;;;;28.95;16.60;;;16.80;98.70;;;;;;5071136;28;20043;-54
2021/09/24 09:54:10;;;;;;;33.10;17.40;;;16.90;98.60;;;;;;5055090;28;20036;-55
2021/09/24 09:56:41;;;;;;;34.92;18.80;;;16.90;98.50;;;;;;5070183;28;20102;-54
2021/09/24 09:59:28;;;;;;;31.80;18.08;;;17.00;98.70;;;;;;5070531;28;20128;-55
2021/09/24 10:02:16;;;;;;;33.45;18.92;;;17.00;99.00;;;;;;5070990;28;20158;-53
2021/09/24 10:04:45;;;;;;;35.92;18.38;;;17.10;98.90;;;;;;5059547;28;20044;-52
2021/09/24 10:07:16;;;;;;;33.25;19.30;;;17.20;98.90;;;;;;5051856;28;20082;-54
2021/09/24 10:09:42;;;;;;;35.17;19.90;;;17.20;98.90;;;;;;5071500;28;20125;-54
2021/09/24 10:12:20;;;;;;;36.05;19.13;;;17.30;98.90;;;;;;5070611;28;20484;-53
2021/09/24 10:14:46;;;;;;;33.47;19.35;;;17.30;99.00;;;;;;5059331;28;20044;-54
2021/09/24 10:17:14;;;;;;;41.55;19.10;;;17.30;99.00;;;;;;5070836;28;20437;-54
2021/09/24 10:19:43;;;;;;;36.33;18.30;;;17.40;99.10;;;;;;5052728;28;20094;-53
2021/09/24 10:22:09;;;;;;;35.65;20.00;;;17.50;98.90;;;;;;5071133;28;20079;-52
2021/09/24 10:24:35;;;;;;;34.13;19.13;;;17.50;99.00;;;;;;5069762;28;20044;-53
2021/09/24 10:27:03;;;;;;;34.20;19.23;;;17.50;98.80;;;;;;5071204;28;20041;-53
2021/09/24 10:29:32;;;;;;;34.63;18.95;;;17.60;98.70;;;;;;5070581;28;20036;-53
2021/09/24 10:32:22;;;;;;;34.80;18.25;;;17.60;98.50;;;;;;5056920;28;20041;-54
2021/09/24 10:35:04;;;;;;;35.00;18.88;;;17.70;98.40;;;;;;5063900;28;20041;-54
2021/09/24 10:37:35;;;;;;;30.02;18.35;;;17.70;98.30;;;;;;5065570;28;20473;-53
2021/09/24 10:40:26;;;;;;;31.48;18.25;;;17.70;98.40;;;;;;5055216;28;20078;-54
2021/09/24 10:43:01;;;;;;;34.10;20.23;;;17.80;98.40;;;;;;5062429;28;20033;-53
2021/09/24 10:45:29;;;;;;;34.88;18.63;;;17.80;98.00;;;;;;5033896;28;20043;-52
2021/09/24 10:48:20;;;;;;;31.92;18.38;;;17.80;97.80;;;;;;5057282;28;20413;-53
2021/09/24 10:50:50;;;;;;;32.75;19.80;;;17.80;97.70;;;;;;5056770;28;20033;-52
2021/09/24 10:53:25;;;;;;;35.53;18.48;;;17.90;97.60;;;;;;5052755;28;20079;-52
2021/09/24 10:55:54;;;;;;;33.63;19.27;;;17.90;97.60;;;;;;5069066;28;20033;-53
2021/09/24 10:58:28;;;;;;;29.15;18.83;;;18.00;97.60;;;;;;5070957;28;20040;-54
2021/09/24 11:00:56;;;;;;;28.20;18.70;;;18.00;97.60;;;;;;5064773;28;20405;-53
2021/09/24 11:03:23;;;;;;;33.45;18.65;;;18.00;97.60;;;;;;5062609;28;20048;-53
2021/09/24 11:05:56;;;;;;;30.63;18.30;;;18.10;97.50;;;;;;5069235;28;20043;-53
2021/09/24 11:08:34;;;;;;;32.70;18.60;;;18.20;97.60;;;;;;5070473;28;20036;-53
2021/09/24 11:11:21;;;;;;;30.52;19.10;;;18.20;97.60;;;;;;5074259;28;20043;-53
2021/09/24 11:13:52;;;;;;;29.00;18.70;;;18.30;97.60;;;;;;5074528;28;20040;-53
2021/09/24 11:16:49;;;;;;;25.80;16.77;;;18.40;97.20;;;;;;5073513;28;20127;-53
2021/09/24 11:19:41;;;;;;;25.27;16.95;;;18.50;97.20;;;;;;5072830;28;20057;-52
2021/09/24 11:22:13;;;;;;;24.63;16.13;;;18.60;96.90;;;;;;5062504;28;20044;-52
2021/09/24 11:24:42;;;;;;;23.42;15.68;;;18.70;96.60;;;;;;5073419;28;20496;-55
2021/09/24 11:27:12;;;;;;;26.50;15.13;;;18.70;96.50;;;;;;5074300;28;20166;-56
2021/09/24 11:30:04;;;;;;;16.63;12.13;;;18.90;96.30;;;;;;5074175;28;20397;-55
2021/09/24 11:32:37;;;;;;;;;;;19.00;96.00;;;;;;5079345;28;20055;-54
2021/09/24 11:35:04;;;;;;;18.45;11.00;;;19.10;95.20;;;;;;5070657;28;20003;-55
2021/09/24 11:37:32;;;;;;;17.02;10.77;;;19.20;94.90;;;;;;5062603;28;20493;-55
2021/09/24 11:40:00;;;;;;;16.45;11.45;;;19.30;94.50;;;;;;5069780;28;20509;-56
2021/09/24 11:42:27;;;;;;;19.13;10.45;;;19.50;94.10;;;;;;5074298;28;20370;-55
2021/09/24 11:44:56;;;;;;;15.98;10.43;;;19.50;93.80;;;;;;5055252;28;20056;-55
2021/09/24 11:47:21;;;;;;;17.25;10.23;;;19.40;93.80;;;;;;5066616;28;20037;-56
2021/09/24 11:50:17;;;;;;;16.38;10.70;;;19.30;93.90;;;;;;5071059;28;20090;-55
2021/09/24 11:52:44;;;;;;;21.25;11.70;;;19.20;94.30;;;;;;5070215;28;20045;-56
2021/09/24 11:55:22;;;;;;;18.10;9.70;;;19.20;94.50;;;;;;5072503;28;20044;-55
2021/09/24 11:58:03;;;;;;;17.42;9.00;;;19.20;94.10;;;;;;5074138;28;20032;-54
2021/09/24 12:00:47;;;;;;;14.50;8.10;;;19.20;94.20;;;;;;5072593;28;20112;-54
2021/09/24 12:03:17;;;;;;;13.63;6.97;;;19.20;94.10;;;;;;5073903;28;20055;-54
2021/09/24 12:05:58;;;;;;;11.57;6.40;;;19.40;94.20;;;;;;5069098;28;20061;-54
2021/09/24 12:08:29;;;;;;;10.30;6.50;;;19.60;93.30;;;;;;5064490;28;20041;-54
2021/09/24 12:11:07;;;;;;;10.35;5.78;;;19.80;93.10;;;;;;5068539;28;20517;-52
2021/09/24 12:13:40;;;;;;;9.25;6.03;;;20.00;93.10;;;;;;5065093;28;20131;-54
2021/09/24 12:16:07;;;;;;;11.52;6.78;;;20.20;91.90;;;;;;5054049;28;20507;-52
2021/09/24 12:18:45;;;;;;;14.02;6.70;;;20.30;91.60;;;;;;5071805;28;20033;-53
2021/09/24 12:21:12;;;;;;;12.48;7.13;;;20.30;91.60;;;;;;5071167;28;20074;-55
2021/09/24 12:23:37;;;;;;;14.10;6.78;;;20.30;91.20;;;;;;5073466;28;20401;-53
2021/09/24 12:26:08;;;;;;;13.02;6.85;;;20.20;91.00;;;;;;5070885;28;20480;-54
2021/09/24 12:28:34;;;;;;;15.32;6.50;;;20.10;90.80;;;;;;5072414;28;20025;-55
2021/09/24 12:30:59;;;;;;;12.63;7.43;;;20.00;90.90;;;;;;5073060;28;20059;-54
2021/09/24 12:33:25;;;;;;;12.38;7.35;;;20.00;91.10;;;;;;5058549;28;20032;-53
2021/09/24 12:36:07;;;;;;;14.82;9.60;;;20.00;91.40;;;;;;5072148;28;20060;-53
2021/09/24 12:38:35;;;;;;;12.68;9.18;;;20.00;91.30;;;;;;5069111;28;20037;-53
2021/09/24 12:41:18;;;;;;;16.73;9.02;;;20.00;91.50;;;;;;5036036;28;20072;-56